createdAt,value
2022-10-17T00:02:26.710Z,70.31
2022-10-17T00:04:55.969Z,70.10
2022-10-17T00:07:26.739Z,70.04
2022-10-17T00:09:56.107Z,70.18
2022-10-17T00:12:25.058Z,70.29
2022-10-17T00:14:54.340Z,70.23
2022-10-17T00:17:23.350Z,70.20
2022-10-17T00:19:52.555Z,70.18
2022-10-17T00:22:21.603Z,70.36
2022-10-17T00:24:52.351Z,70.22
2022-10-17T00:27:21.327Z,70.19
2022-10-17T00:29:50.935Z,70.41
2022-10-17T00:32:20.170Z,70.47
2022-10-17T00:34:49.429Z,70.30
2022-10-17T00:37:18.442Z,70.28
2022-10-17T00:39:47.687Z,70.44
2022-10-17T00:42:18.025Z,70.06
2022-10-17T00:45:17.405Z,70.18
2022-10-17T00:47:47.214Z,70.30
2022-10-17T00:50:16.519Z,70.49
2022-10-17T00:52:45.454Z,70.37
2022-10-17T00:55:15.878Z,70.46
2022-10-17T00:57:46.400Z,71.04
2022-10-17T01:00:16.083Z,71.26
2022-10-17T01:02:45.089Z,71.79
2022-10-17T01:05:14.355Z,71.72
2022-10-17T01:07:43.405Z,71.50
2022-10-17T01:10:12.895Z,71.60
2022-10-17T01:12:43.949Z,72.06
2022-10-17T01:15:15.545Z,72.21
2022-10-17T01:17:47.523Z,72.15
2022-10-17T01:20:37.487Z,72.20
2022-10-17T01:23:11.357Z,71.82
2022-10-17T01:25:42.249Z,72.17
2022-10-17T01:28:15.373Z,72.33
2022-10-17T01:30:48.969Z,72.53
2022-10-17T01:33:19.254Z,72.87
2022-10-17T01:35:49.114Z,73.17
2022-10-17T01:38:19.142Z,72.51
2022-10-17T01:40:49.630Z,71.77
2022-10-17T01:43:19.631Z,71.95
2022-10-17T01:45:51.176Z,72.05
2022-10-17T01:48:21.101Z,71.75
2022-10-17T01:50:51.565Z,72.30
2022-10-17T01:53:21.337Z,72.93
2022-10-17T01:55:50.667Z,73.22
2022-10-17T01:58:20.733Z,72.96
2022-10-17T02:00:51.340Z,72.95
2022-10-17T02:03:20.852Z,73.26
2022-10-17T02:05:50.048Z,73.06
2022-10-17T02:08:26.920Z,72.44
2022-10-17T02:10:57.528Z,72.68
2022-10-17T02:13:29.168Z,72.54
2022-10-17T02:16:06.588Z,72.42
2022-10-17T02:18:40.266Z,72.06
2022-10-17T02:21:10.075Z,71.85
2022-10-17T02:23:39.446Z,71.69
2022-10-17T02:26:09.386Z,71.56
2022-10-17T02:28:40.029Z,71.36
2022-10-17T02:31:11.731Z,71.08
2022-10-17T02:33:41.211Z,71.26
2022-10-17T02:36:11.233Z,71.15
2022-10-17T02:38:40.293Z,71.20
2022-10-17T02:41:10.126Z,71.60
2022-10-17T02:43:39.491Z,71.49
2022-10-17T02:46:10.172Z,71.34
2022-10-17T02:48:40.141Z,71.59
2022-10-17T02:51:11.425Z,72.12
2022-10-17T02:53:42.487Z,71.96
2022-10-17T02:56:16.398Z,71.92
2022-10-17T02:58:45.481Z,72.11
2022-10-17T03:01:16.139Z,72.02
2022-10-17T03:03:45.171Z,72.41
2022-10-17T03:06:14.495Z,73.11
2022-10-17T03:08:43.546Z,73.05
2022-10-17T03:11:12.893Z,72.71
2022-10-17T03:13:41.902Z,72.82
2022-10-17T03:16:11.243Z,72.34
2022-10-17T03:18:44.328Z,71.83
2022-10-17T03:21:15.956Z,72.25
2022-10-17T03:23:44.950Z,72.85
2022-10-17T03:26:14.234Z,73.11
2022-10-17T03:28:43.280Z,72.54
2022-10-17T03:31:14.125Z,72.47
2022-10-17T03:33:44.602Z,72.62
2022-10-17T03:36:15.173Z,72.32
2022-10-17T03:38:44.454Z,71.81
2022-10-17T03:41:13.911Z,71.85
2022-10-17T03:43:42.926Z,72.20
2022-10-17T03:46:12.174Z,72.50
2022-10-17T03:48:41.191Z,72.72
2022-10-17T03:51:12.065Z,72.33
2022-10-17T03:53:41.059Z,72.30
2022-10-17T03:56:11.153Z,72.33
2022-10-17T03:58:40.347Z,72.38
2022-10-17T04:01:10.409Z,72.44
2022-10-17T04:03:39.619Z,72.51
2022-10-17T04:06:09.094Z,72.97
2022-10-17T04:08:39.568Z,72.70
2022-10-17T04:11:09.321Z,72.60
2022-10-17T04:13:38.360Z,72.83
2022-10-17T04:16:08.210Z,73.31
2022-10-17T04:18:37.298Z,73.83
2022-10-17T04:21:06.896Z,74.32
2022-10-17T04:23:35.925Z,73.76
2022-10-17T04:26:07.166Z,72.99
2022-10-17T04:28:36.273Z,72.16
2022-10-17T04:31:06.134Z,71.77
2022-10-17T04:33:35.390Z,71.46
2022-10-17T04:36:05.466Z,71.37
2022-10-17T04:38:34.495Z,71.45
2022-10-17T04:41:04.887Z,71.43
2022-10-17T04:43:35.861Z,71.19
2022-10-17T04:46:05.709Z,71.36
2022-10-17T04:48:34.711Z,71.82
2022-10-17T04:51:04.499Z,72.09
2022-10-17T04:53:33.923Z,71.87
2022-10-17T04:56:03.279Z,72.17
2022-10-17T04:58:32.257Z,71.82
2022-10-17T05:01:02.989Z,71.25
2022-10-17T05:03:32.122Z,71.29
2022-10-17T05:06:04.462Z,71.31
2022-10-17T05:08:33.469Z,71.30
2022-10-17T05:11:02.744Z,71.42
2022-10-17T05:13:32.197Z,70.98
2022-10-17T05:16:03.231Z,71.37
2022-10-17T05:18:32.249Z,71.82
2022-10-17T05:21:01.424Z,71.69
2022-10-17T05:23:30.888Z,72.06
2022-10-17T05:26:00.082Z,71.88
2022-10-17T05:28:29.246Z,71.64
2022-10-17T05:30:58.533Z,71.87
2022-10-17T05:33:28.942Z,71.39
2022-10-17T05:35:58.197Z,71.78
2022-10-17T05:38:27.357Z,71.99
2022-10-17T05:40:58.489Z,71.44
2022-10-17T05:43:27.614Z,72.02
2022-10-17T05:45:56.861Z,72.13
2022-10-17T05:48:25.823Z,72.14
2022-10-17T05:51:01.020Z,71.71
2022-10-17T05:53:31.620Z,71.38
2022-10-17T05:56:01.484Z,71.36
2022-10-17T05:58:50.290Z,71.35
2022-10-17T06:01:19.881Z,71.32
2022-10-17T06:03:48.901Z,71.20
2022-10-17T06:06:19.729Z,71.20
2022-10-17T06:08:48.769Z,71.54
2022-10-17T06:11:18.035Z,71.59
2022-10-17T06:13:47.028Z,71.80
2022-10-17T06:16:16.240Z,72.12
2022-10-17T06:18:45.333Z,71.94
2022-10-17T06:21:15.783Z,72.07
2022-10-17T06:23:46.214Z,71.82
2022-10-17T06:26:15.714Z,71.93
2022-10-17T06:28:45.100Z,71.66
2022-10-17T06:31:15.004Z,71.98
2022-10-17T06:33:45.300Z,72.09
2022-10-17T06:36:15.087Z,71.93
2022-10-17T06:38:44.120Z,72.02
2022-10-17T06:41:15.590Z,72.17
2022-10-17T06:43:46.372Z,72.00
2022-10-17T06:46:16.247Z,72.04
2022-10-17T06:48:45.398Z,72.32
2022-10-17T06:51:14.855Z,72.02
2022-10-17T06:53:43.940Z,72.41
2022-10-17T06:56:24.698Z,72.21
2022-10-17T06:59:00.247Z,72.54
2022-10-17T07:01:37.342Z,72.10
2022-10-17T07:04:15.326Z,72.18
2022-10-17T07:06:55.851Z,72.28
2022-10-17T07:09:25.928Z,72.27
2022-10-17T07:11:56.989Z,72.30
2022-10-17T07:14:32.336Z,72.32
2022-10-17T07:17:02.366Z,72.31
2022-10-17T07:22:54.620Z,72.28
2022-10-17T07:29:26.818Z,72.15
2022-10-17T07:31:58.147Z,72.13
2022-10-17T07:34:32.517Z,72.27
2022-10-17T07:37:06.845Z,72.54
2022-10-17T07:39:36.823Z,72.23
2022-10-17T07:42:07.631Z,72.31
2022-10-17T07:44:36.935Z,72.30
2022-10-17T07:47:07.873Z,72.35
2022-10-17T07:49:42.579Z,72.52
2022-10-17T07:52:12.447Z,72.09
2022-10-17T07:54:41.468Z,72.22
2022-10-17T07:57:10.936Z,72.52
2022-10-17T07:59:40.306Z,72.20
2022-10-17T08:02:40.893Z,72.32
2022-10-17T08:05:21.600Z,72.35
2022-10-17T08:07:51.142Z,72.52
2022-10-17T08:10:20.480Z,72.67
2022-10-17T08:12:50.079Z,72.53
2022-10-17T08:15:19.225Z,72.41
2022-10-17T08:17:48.654Z,72.66
2022-10-17T08:20:17.838Z,72.63
2022-10-17T08:22:54.061Z,72.60
2022-10-17T08:25:23.439Z,72.70
2022-10-17T08:27:52.754Z,72.89
2022-10-17T08:33:24.123Z,72.62
2022-10-17T08:35:53.172Z,72.81
2022-10-17T08:38:27.496Z,72.84
2022-10-17T08:40:56.952Z,72.89
2022-10-17T08:43:33.328Z,72.74
2022-10-17T08:46:05.656Z,72.69
2022-10-17T08:48:36.001Z,72.52
2022-10-17T08:51:07.241Z,72.51
2022-10-17T08:53:39.331Z,72.71
2022-10-17T08:56:19.555Z,72.85
2022-10-17T08:59:03.724Z,72.95
2022-10-17T09:01:34.542Z,72.82
2022-10-17T09:04:18.799Z,73.08
2022-10-17T09:06:49.853Z,72.97
2022-10-17T09:09:24.403Z,72.99
2022-10-17T09:11:59.777Z,73.02
2022-10-17T09:14:32.076Z,72.97
2022-10-17T09:17:04.694Z,72.85
2022-10-17T09:19:35.283Z,73.08
2022-10-17T09:22:05.187Z,73.18
2022-10-17T09:24:38.736Z,73.20
2022-10-17T09:27:07.884Z,73.19
2022-10-17T09:29:41.499Z,73.31
2022-10-17T09:32:13.208Z,73.25
2022-10-17T09:34:42.435Z,73.32
2022-10-17T09:37:12.796Z,73.27
2022-10-17T09:39:43.613Z,73.59
2022-10-17T09:42:15.889Z,73.59
2022-10-17T09:44:48.453Z,73.65
2022-10-17T09:47:23.930Z,73.59
2022-10-17T09:49:53.459Z,73.64
2022-10-17T09:52:23.239Z,73.49
2022-10-17T09:54:54.349Z,73.61
2022-10-17T09:57:23.969Z,73.71
2022-10-17T10:02:43.911Z,73.67
2022-10-17T10:05:17.488Z,73.94
2022-10-17T10:07:48.175Z,73.92
2022-10-17T10:10:28.275Z,73.86
2022-10-17T10:13:05.073Z,73.75
2022-10-17T10:15:41.497Z,73.80
2022-10-17T10:18:35.243Z,73.85
2022-10-17T10:21:10.847Z,74.05
2022-10-17T10:23:41.412Z,73.91
2022-10-17T10:26:23.312Z,73.76
2022-10-17T10:29:22.324Z,74.13
2022-10-17T10:32:57.345Z,74.00
2022-10-17T10:35:20.650Z,73.94
2022-10-17T10:37:51.291Z,74.21
2022-10-17T10:40:55.426Z,74.17
2022-10-17T10:51:05.148Z,74.49
2022-10-17T10:53:36.052Z,74.31
2022-10-17T10:56:06.069Z,74.41
2022-10-17T10:58:42.133Z,74.24
2022-10-17T11:01:13.865Z,74.03
2022-10-17T11:03:43.476Z,74.13
2022-10-17T11:06:18.200Z,74.30
2022-10-17T11:08:49.612Z,74.43
2022-10-17T11:11:19.913Z,74.24
2022-10-17T11:13:53.298Z,73.34
2022-10-17T11:16:25.370Z,73.91
2022-10-17T11:18:56.483Z,74.00
2022-10-17T11:21:29.865Z,74.19
2022-10-17T11:24:04.593Z,74.18
2022-10-17T11:26:39.803Z,74.20
2022-10-17T11:29:12.018Z,74.14
2022-10-17T11:31:42.354Z,74.21
2022-10-17T11:34:11.905Z,74.23
2022-10-17T11:36:43.329Z,74.10
2022-10-17T11:39:13.368Z,74.30
2022-10-17T11:41:43.425Z,74.35
2022-10-17T11:44:14.967Z,74.37
2022-10-17T11:46:44.093Z,74.02
2022-10-17T11:49:19.869Z,74.35
2022-10-17T11:52:00.822Z,74.51
2022-10-17T11:58:48.277Z,74.30
2022-10-17T12:01:19.256Z,74.10
2022-10-17T12:04:20.346Z,74.09
2022-10-17T12:10:23.816Z,73.76
2022-10-17T12:12:53.042Z,73.80
2022-10-17T12:15:32.633Z,74.10
2022-10-17T12:18:03.073Z,74.42
2022-10-17T12:20:35.722Z,74.63
2022-10-17T12:23:28.244Z,74.40
2022-10-17T12:30:15.840Z,73.96
2022-10-17T12:33:31.288Z,74.47
2022-10-17T12:36:28.905Z,74.06
2022-10-17T12:39:17.843Z,73.66
2022-10-17T12:41:54.775Z,74.05
2022-10-17T12:44:38.156Z,73.84
2022-10-17T12:47:28.213Z,73.84
2022-10-17T12:49:59.495Z,74.17
2022-10-17T12:52:31.335Z,74.02
2022-10-17T12:55:18.057Z,74.19
2022-10-17T12:57:55.706Z,74.01
2022-10-17T13:00:27.218Z,73.17
2022-10-17T13:02:57.065Z,73.96
2022-10-17T13:05:29.730Z,73.62
2022-10-17T13:07:59.997Z,73.73
2022-10-17T13:10:30.757Z,73.24
2022-10-17T13:13:05.050Z,73.20
2022-10-17T13:15:34.623Z,73.00
2022-10-17T13:18:11.542Z,73.04
2022-10-17T13:20:45.814Z,73.19
2022-10-17T13:23:27.548Z,73.00
2022-10-17T13:26:20.557Z,73.37
2022-10-17T13:29:05.358Z,73.48
2022-10-17T13:31:40.351Z,73.57
2022-10-17T13:34:16.995Z,73.43
2022-10-17T13:36:53.615Z,73.14
2022-10-17T13:39:38.425Z,73.64
2022-10-17T13:42:19.198Z,73.28
2022-10-17T13:44:48.359Z,73.08
2022-10-17T13:47:51.436Z,73.57
2022-10-17T13:50:43.736Z,73.21
2022-10-17T13:53:24.378Z,73.27
2022-10-17T13:56:15.689Z,73.31
2022-10-17T13:58:47.762Z,73.55
2022-10-17T14:01:17.059Z,73.44
2022-10-17T14:03:49.014Z,73.17
2022-10-17T14:06:19.667Z,73.42
2022-10-17T14:08:51.672Z,72.99
2022-10-17T14:11:29.370Z,73.03
2022-10-17T14:13:58.955Z,73.27
2022-10-17T14:16:28.464Z,73.23
2022-10-17T14:18:57.882Z,73.63
2022-10-17T14:21:40.940Z,73.22
2022-10-17T14:24:26.247Z,73.76
2022-10-17T14:26:55.873Z,73.86
2022-10-17T14:29:26.351Z,73.70
2022-10-17T14:32:02.136Z,73.71
2022-10-17T14:34:32.991Z,74.10
2022-10-17T14:37:02.257Z,74.04
2022-10-17T14:39:33.254Z,73.75
2022-10-17T14:42:04.519Z,74.04
2022-10-17T14:44:34.580Z,74.35
2022-10-17T14:47:18.616Z,74.43
2022-10-17T14:50:04.289Z,74.36
2022-10-17T14:52:33.590Z,74.13
2022-10-17T14:55:18.702Z,74.16
2022-10-17T14:57:47.814Z,74.09
2022-10-17T15:00:17.353Z,74.22
2022-10-17T15:02:46.718Z,74.45
2022-10-17T15:05:16.276Z,74.21
2022-10-17T15:07:45.341Z,74.27
2022-10-17T15:10:22.535Z,74.15
2022-10-17T15:13:04.344Z,74.30
2022-10-17T15:15:39.311Z,74.11
2022-10-17T15:18:08.474Z,74.03
2022-10-17T15:20:37.989Z,73.82
2022-10-17T15:23:07.085Z,74.06
2022-10-17T15:25:37.767Z,74.40
2022-10-17T15:28:06.783Z,74.11
2022-10-17T15:30:36.646Z,74.08
2022-10-17T15:33:05.686Z,73.99
2022-10-17T15:35:34.968Z,74.24
2022-10-17T15:38:03.997Z,74.13
2022-10-17T15:40:33.170Z,73.95
2022-10-17T15:43:03.608Z,73.80
2022-10-17T15:45:32.959Z,73.83
2022-10-17T15:48:03.186Z,73.86
2022-10-17T15:50:32.621Z,73.85
2022-10-17T15:53:01.705Z,73.73
2022-10-17T15:55:31.988Z,73.93
2022-10-17T15:58:01.491Z,73.96
2022-10-17T16:00:32.219Z,73.73
2022-10-17T16:03:01.875Z,74.08
2022-10-17T16:05:31.065Z,73.53
2022-10-17T16:08:00.133Z,73.74
2022-10-17T16:10:29.424Z,73.35
2022-10-17T16:12:58.744Z,73.65
2022-10-17T16:15:28.696Z,73.53
2022-10-17T16:18:01.658Z,73.71
2022-10-17T16:20:33.526Z,73.61
2022-10-17T16:23:03.438Z,73.50
2022-10-17T16:25:32.979Z,73.61
2022-10-17T16:28:02.059Z,73.71
2022-10-17T16:30:31.817Z,73.75
2022-10-17T16:33:02.337Z,73.50
2022-10-17T16:35:34.952Z,73.66
2022-10-17T16:38:07.090Z,73.66
2022-10-17T16:40:37.071Z,73.40
2022-10-17T16:43:06.102Z,73.63
2022-10-17T16:45:35.325Z,73.46
2022-10-17T16:48:06.095Z,73.45
2022-10-17T16:50:35.824Z,73.50
2022-10-17T16:53:05.133Z,73.59
2022-10-17T16:55:34.347Z,73.35
2022-10-17T16:58:03.349Z,73.48
2022-10-17T17:00:32.794Z,73.44
2022-10-17T17:03:01.830Z,73.37
2022-10-17T17:05:32.494Z,73.28
2022-10-17T17:08:03.597Z,73.40
2022-10-17T17:10:32.811Z,73.24
2022-10-17T17:13:03.393Z,73.06
2022-10-17T17:15:32.710Z,72.97
2022-10-17T17:18:05.083Z,73.18
2022-10-17T17:20:36.582Z,73.00
2022-10-17T17:23:05.724Z,73.13
2022-10-17T17:25:35.621Z,73.09
2022-10-17T17:28:04.604Z,73.24
2022-10-17T17:30:34.259Z,72.74
2022-10-17T17:33:03.316Z,73.21
2022-10-17T17:35:32.626Z,72.98
2022-10-17T17:38:04.865Z,72.79
2022-10-17T17:40:34.893Z,72.46
2022-10-17T17:43:04.251Z,72.49
2022-10-17T17:45:33.667Z,72.70
2022-10-17T17:48:02.658Z,72.81
2022-10-17T17:50:32.972Z,72.77
2022-10-17T17:53:03.453Z,72.85
2022-10-17T17:55:32.852Z,72.99
2022-10-17T17:58:01.966Z,72.95
2022-10-17T18:00:31.310Z,73.01
2022-10-17T18:03:00.524Z,72.64
2022-10-17T18:05:29.804Z,72.96
2022-10-17T18:07:58.849Z,72.93
2022-10-17T18:10:30.560Z,73.03
2022-10-17T18:12:59.664Z,73.00
2022-10-17T18:15:29.038Z,72.96
2022-10-17T18:17:58.100Z,72.91
2022-10-17T18:20:27.909Z,72.87
2022-10-17T18:23:00.509Z,73.23
2022-10-17T18:25:34.151Z,73.04
2022-10-17T18:28:03.252Z,73.01
2022-10-17T18:30:34.416Z,73.12
2022-10-17T18:33:03.653Z,73.05
2022-10-17T18:35:35.863Z,73.08
2022-10-17T18:38:06.149Z,73.15
2022-10-17T18:40:36.896Z,72.97
2022-10-17T18:43:05.944Z,73.00
2022-10-17T18:45:35.327Z,73.14
2022-10-17T18:48:04.390Z,73.30
2022-10-17T18:50:33.632Z,73.42
2022-10-17T18:53:02.668Z,73.44
2022-10-17T18:55:32.114Z,73.76
2022-10-17T18:58:02.912Z,73.74
2022-10-17T19:00:33.228Z,73.71
2022-10-17T19:03:04.334Z,73.81
2022-10-17T19:05:34.883Z,74.10
2022-10-17T19:08:03.949Z,74.44
2022-10-17T19:10:33.439Z,74.14
2022-10-17T19:13:03.951Z,74.48
2022-10-17T19:15:33.236Z,73.97
2022-10-17T19:18:02.268Z,73.78
2022-10-17T19:20:31.574Z,74.05
2022-10-17T19:23:00.616Z,74.06
2022-10-17T19:25:30.686Z,73.96
2022-10-17T19:27:59.809Z,74.35
2022-10-17T19:30:30.524Z,74.67
2022-10-17T19:32:59.609Z,75.81
2022-10-17T19:35:28.846Z,75.34
2022-10-17T19:37:57.959Z,74.70
2022-10-17T19:40:27.582Z,74.84
2022-10-17T19:42:56.619Z,75.01
2022-10-17T19:45:25.889Z,75.01
2022-10-17T19:47:56.243Z,74.77
2022-10-17T19:50:25.538Z,74.29
2022-10-17T19:52:54.555Z,74.56
2022-10-17T19:55:23.892Z,74.28
2022-10-17T19:57:52.904Z,74.72
2022-10-17T20:00:22.239Z,74.25
2022-10-17T20:02:51.323Z,74.05
2022-10-17T20:05:28.046Z,74.25
2022-10-17T20:07:57.299Z,74.38
2022-10-17T20:10:26.749Z,74.77
2022-10-17T20:12:55.979Z,74.38
2022-10-17T20:15:25.171Z,74.17
2022-10-17T20:17:54.215Z,73.95
2022-10-17T20:20:24.976Z,74.26
2022-10-17T20:22:53.980Z,74.16
2022-10-17T20:25:23.359Z,74.28
2022-10-17T20:27:52.502Z,74.38
2022-10-17T20:30:21.833Z,74.27
2022-10-17T20:32:55.220Z,74.50
2022-10-17T20:35:26.067Z,74.22
2022-10-17T20:37:55.139Z,74.51
2022-10-17T20:40:34.649Z,74.75
2022-10-17T20:43:04.786Z,74.97
2022-10-17T20:45:50.427Z,74.71
2022-10-17T20:48:20.977Z,74.78
2022-10-17T20:50:52.108Z,75.08
2022-10-17T20:53:37.571Z,74.59
2022-10-17T20:56:07.919Z,74.64
2022-10-17T20:58:37.017Z,74.62
2022-10-17T21:01:07.638Z,74.26
2022-10-17T21:03:43.885Z,74.51
2022-10-17T21:06:17.822Z,74.08
2022-10-17T21:08:47.144Z,74.31
2022-10-17T21:11:17.112Z,74.32
2022-10-17T21:13:46.300Z,74.51
2022-10-17T21:16:16.473Z,74.26
2022-10-17T21:18:45.480Z,74.15
2022-10-17T21:21:16.004Z,74.43
2022-10-17T21:23:47.630Z,73.78
2022-10-17T21:26:16.915Z,74.12
2022-10-17T21:28:46.751Z,73.98
2022-10-17T21:31:16.742Z,73.55
2022-10-17T21:33:46.340Z,73.93
2022-10-17T21:36:16.894Z,74.04
2022-10-17T21:38:47.838Z,73.88
2022-10-17T21:41:17.575Z,73.67
2022-10-17T21:43:46.859Z,74.18
2022-10-17T21:46:17.189Z,73.66
2022-10-17T21:48:46.487Z,72.94
2022-10-17T21:51:17.197Z,73.99
2022-10-17T21:53:47.765Z,73.53
2022-10-17T21:56:18.120Z,73.64
2022-10-17T21:58:47.147Z,73.70
2022-10-17T22:01:17.888Z,73.28
2022-10-17T22:03:47.866Z,73.31
2022-10-17T22:06:38.752Z,74.04
2022-10-17T22:09:08.493Z,73.63
2022-10-17T22:11:37.760Z,73.32
2022-10-17T22:14:07.848Z,72.82
2022-10-17T22:16:37.117Z,73.31
2022-10-17T22:19:07.287Z,72.76
2022-10-17T22:21:37.279Z,72.57
2022-10-17T22:24:11.455Z,72.68
2022-10-17T22:26:40.805Z,72.59
2022-10-17T22:29:09.895Z,72.83
2022-10-17T22:31:39.400Z,72.42
2022-10-17T22:34:08.752Z,72.31
2022-10-17T22:36:38.017Z,72.63
2022-10-17T22:39:08.461Z,72.64
2022-10-17T22:41:37.635Z,72.82
2022-10-17T22:44:06.703Z,73.03
2022-10-17T22:46:35.998Z,73.22
2022-10-17T22:49:04.975Z,73.48
2022-10-17T22:51:34.197Z,72.74
2022-10-17T22:54:03.200Z,73.25
2022-10-17T22:56:33.856Z,73.46
2022-10-17T22:59:02.882Z,73.08
2022-10-17T23:01:32.170Z,73.57
2022-10-17T23:04:01.200Z,73.13
2022-10-17T23:06:30.477Z,73.23
2022-10-17T23:08:59.504Z,73.42
2022-10-17T23:11:28.865Z,73.68
2022-10-17T23:13:59.280Z,73.59
2022-10-17T23:16:28.534Z,72.83
2022-10-17T23:18:58.445Z,73.55
2022-10-17T23:21:27.757Z,73.56
2022-10-17T23:23:56.778Z,73.38
2022-10-17T23:26:25.983Z,73.42
2022-10-17T23:29:03.632Z,73.60
2022-10-17T23:31:34.359Z,73.34
2022-10-17T23:34:03.327Z,73.27
2022-10-17T23:39:06.561Z,72.70
2022-10-17T23:41:35.735Z,73.28
2022-10-17T23:44:04.937Z,74.02
2022-10-17T23:46:35.560Z,73.65
2022-10-17T23:49:04.815Z,74.26
2022-10-17T23:51:34.297Z,74.24
2022-10-17T23:54:03.381Z,74.49
2022-10-17T23:56:32.563Z,74.46
2022-10-17T23:59:01.610Z,74.39
